Time;durP1;ratioP1;P1;durP2;ratioP2;P2;SDS_P1;SDS_P2;PMS_P1;PMS_P2;Temp;Humidity;BMP_temperature;BMP_pressure;BME280_temperature;BME280_humidity;BME280_pressure;Samples;Min_cycle;Max_cycle;Signal;HPM_P1;HPM_P2
2022/10/12 00:02:31;;;;;;;13.85;7.82;;;;;;;;;;6124675;23;20024;-74
2022/10/12 00:05:17;;;;;;;13.93;9.40;;;;;;;;;;6124755;23;20002;-69
2022/10/12 00:08:02;;;;;;;19.88;9.20;;;;;;;;;;6123331;23;20017;-76
2022/10/12 00:10:48;;;;;;;15.52;8.77;;;;;;;;;;6123204;23;20487;-77
2022/10/12 00:13:33;;;;;;;20.77;10.35;;;;;;;;;;6123698;23;20001;-77
2022/10/12 00:16:18;;;;;;;17.20;9.75;;;;;;;;;;6125754;23;20081;-78
2022/10/12 00:19:04;;;;;;;17.35;8.68;;;;;;;;;;6125338;23;20005;-76
2022/10/12 00:21:49;;;;;;;16.33;8.70;;;;;;;;;;6133431;23;20384;-81
2022/10/12 00:24:34;;;;;;;15.07;9.25;;;;;;;;;;6124916;23;20004;-70
2022/10/12 00:27:20;;;;;;;19.58;9.07;;;;;;;;;;6126694;23;20006;-71
2022/10/12 00:30:05;;;;;;;16.08;9.13;;;;;;;;;;6125152;23;20014;-69
2022/10/12 00:32:50;;;;;;;18.60;10.25;;;;;;;;;;6146916;23;20020;-69
2022/10/12 00:35:36;;;;;;;15.63;9.23;;;;;;;;;;6125869;23;20506;-69
2022/10/12 00:38:21;;;;;;;16.17;9.55;;;;;;;;;;6145882;23;20016;-70
2022/10/12 00:41:06;;;;;;;16.88;10.50;;;;;;;;;;6126514;23;20437;-81
2022/10/12 00:43:52;;;;;;;19.33;9.45;;;;;;;;;;6125810;23;20050;-70
2022/10/12 00:46:44;;;;;;;17.02;9.05;;;;;;;;;;6124602;23;20017;-70
2022/10/12 00:49:29;;;;;;;20.23;11.23;;;;;;;;;;6125397;23;20321;-70
2022/10/12 00:52:15;;;;;;;18.27;9.35;;;;;;;;;;6127407;23;20434;-71
2022/10/12 00:55:01;;;;;;;19.95;11.18;;;;;;;;;;6130831;23;20010;-70
2022/10/12 00:57:47;;;;;;;13.40;8.75;;;;;;;;;;6125678;23;20021;-72
2022/10/12 01:00:32;;;;;;;16.67;9.13;;;;;;;;;;6125545;23;20016;-72
2022/10/12 01:03:20;;;;;;;15.70;9.10;;;;;;;;;;6126592;23;20348;-78
2022/10/12 01:06:06;;;;;;;18.77;10.48;;;;;;;;;;6232603;22;20002;-76
2022/10/12 01:08:53;;;;;;;17.88;10.30;;;;;;;;;;6125145;23;20013;-77
2022/10/12 01:11:39;;;;;;;18.33;10.40;;;;;;;;;;6146919;23;20008;-79
2022/10/12 01:14:24;;;;;;;20.48;9.95;;;;;;;;;;6146393;23;20440;-77
2022/10/12 01:17:09;;;;;;;14.65;8.85;;;;;;;;;;6125423;23;20024;-80
2022/10/12 01:19:54;;;;;;;19.52;10.25;;;;;;;;;;6125506;23;20016;-73
2022/10/12 01:22:44;;;;;;;15.90;10.32;;;;;;;;;;6124158;23;20010;-74
2022/10/12 01:25:33;;;;;;;18.75;9.43;;;;;;;;;;6129483;23;20056;-73
2022/10/12 01:28:25;;;;;;;16.73;8.80;;;;;;;;;;6124275;23;20084;-75
2022/10/12 01:31:16;;;;;;;12.80;8.70;;;;;;;;;;6125213;23;20084;-74
2022/10/12 01:34:06;;;;;;;19.55;10.70;;;;;;;;;;6125648;23;20097;-76
2022/10/12 01:36:54;;;;;;;20.30;8.80;;;;;;;;;;6145707;23;20002;-69
2022/10/12 01:39:46;;;;;;;19.08;9.65;;;;;;;;;;6125057;23;20009;-69
2022/10/12 01:42:33;;;;;;;17.10;11.30;;;;;;;;;;6124038;23;20033;-71
2022/10/12 01:45:18;;;;;;;20.05;10.25;;;;;;;;;;6103451;23;20009;-71
2022/10/12 01:48:04;;;;;;;17.23;10.05;;;;;;;;;;6144872;23;20002;-71
2022/10/12 01:50:51;;;;;;;17.98;9.40;;;;;;;;;;6143376;23;20010;-70
2022/10/12 01:53:48;;;;;;;21.92;9.38;;;;;;;;;;6232266;22;20324;-73
2022/10/12 01:56:48;;;;;;;16.90;10.70;;;;;;;;;;6128076;23;20009;-73
2022/10/12 01:59:54;;;;;;;15.65;9.82;;;;;;;;;;6148633;23;20013;-70
2022/10/12 02:02:54;;;;;;;23.27;10.27;;;;;;;;;;6124151;23;20008;-72
2022/10/12 02:05:46;;;;;;;13.55;9.38;;;;;;;;;;6125255;23;20088;-69
2022/10/12 02:08:34;;;;;;;24.50;10.02;;;;;;;;;;6124492;23;20477;-70
2022/10/12 02:11:20;;;;;;;18.23;8.90;;;;;;;;;;6124751;23;20013;-70
2022/10/12 02:14:07;;;;;;;18.42;9.43;;;;;;;;;;6124830;23;20012;-70
2022/10/12 02:16:54;;;;;;;18.88;11.20;;;;;;;;;;6124548;23;20366;-69
2022/10/12 02:19:42;;;;;;;18.98;11.52;;;;;;;;;;6230136;22;20009;-69
2022/10/12 02:22:33;;;;;;;18.25;9.50;;;;;;;;;;6143194;23;20326;-68
2022/10/12 02:25:19;;;;;;;18.00;9.75;;;;;;;;;;6229435;22;20085;-68
2022/10/12 02:28:07;;;;;;;19.33;10.10;;;;;;;;;;6122314;23;20074;-67
2022/10/12 02:30:56;;;;;;;21.13;10.15;;;;;;;;;;6150948;23;20017;-67
2022/10/12 02:33:45;;;;;;;17.75;11.70;;;;;;;;;;6232645;22;20013;-67
2022/10/12 02:36:36;;;;;;;17.30;10.52;;;;;;;;;;6123666;23;20012;-69
2022/10/12 02:39:24;;;;;;;15.15;8.32;;;;;;;;;;6123133;23;20066;-67
2022/10/12 02:42:14;;;;;;;15.15;8.77;;;;;;;;;;6232953;22;20002;-66
2022/10/12 02:44:59;;;;;;;;;;;;;;;;;;6123738;23;20501;-67
2022/10/12 02:47:46;;;;;;;15.35;8.98;;;;;;;;;;6103223;23;19919;-68
2022/10/12 02:50:31;;;;;;;14.98;8.68;;;;;;;;;;6124311;23;20365;-78
2022/10/12 02:53:17;;;;;;;12.95;8.52;;;;;;;;;;6145209;23;20355;-80
2022/10/12 02:56:05;;;;;;;13.10;8.82;;;;;;;;;;6125146;23;20020;-79
2022/10/12 02:58:50;;;;;;;12.30;7.93;;;;;;;;;;6232540;22;20013;-79
2022/10/12 03:01:35;;;;;;;12.30;8.45;;;;;;;;;;6130833;23;20002;-78
2022/10/12 03:04:20;;;;;;;16.40;9.15;;;;;;;;;;6144183;23;20008;-80
2022/10/12 03:07:05;;;;;;;15.90;9.05;;;;;;;;;;6125563;23;20505;-77
2022/10/12 03:09:51;;;;;;;15.38;9.15;;;;;;;;;;6232310;22;20009;-72
2022/10/12 03:12:36;;;;;;;15.00;9.05;;;;;;;;;;6125400;23;20028;-77
2022/10/12 03:15:21;;;;;;;17.48;9.02;;;;;;;;;;6123343;23;20048;-77
2022/10/12 03:18:06;;;;;;;15.52;9.98;;;;;;;;;;6124300;23;20005;-77
2022/10/12 03:20:52;;;;;;;14.82;9.98;;;;;;;;;;6125483;23;20070;-76
2022/10/12 03:23:37;;;;;;;14.55;8.73;;;;;;;;;;6124492;23;20074;-77
2022/10/12 03:26:22;;;;;;;13.13;8.80;;;;;;;;;;6145396;23;20409;-72
2022/10/12 03:29:08;;;;;;;14.15;8.15;;;;;;;;;;6210813;22;20013;-70
2022/10/12 03:31:53;;;;;;;12.73;8.48;;;;;;;;;;6210294;22;20005;-69
2022/10/12 03:34:38;;;;;;;13.88;8.70;;;;;;;;;;6131817;23;20441;-68
2022/10/12 03:37:23;;;;;;;17.35;8.57;;;;;;;;;;6211641;22;20017;-68
2022/10/12 03:40:09;;;;;;;11.32;7.68;;;;;;;;;;6208119;22;20008;-69
2022/10/12 03:42:54;;;;;;;13.90;8.02;;;;;;;;;;6120958;23;20009;-67
2022/10/12 03:45:39;;;;;;;13.95;8.20;;;;;;;;;;6123825;23;20059;-77
2022/10/12 03:48:25;;;;;;;14.63;8.50;;;;;;;;;;6123765;23;20006;-72
2022/10/12 03:51:10;;;;;;;14.48;8.13;;;;;;;;;;6147189;23;20096;-74
2022/10/12 03:53:55;;;;;;;12.05;7.35;;;;;;;;;;6126249;23;20385;-75
2022/10/12 03:56:41;;;;;;;16.70;9.02;;;;;;;;;;6124890;23;20009;-74
2022/10/12 03:59:26;;;;;;;12.88;8.10;;;;;;;;;;6127053;23;20008;-74
2022/10/12 04:02:11;;;;;;;11.77;8.57;;;;;;;;;;6123975;23;20009;-73
2022/10/12 04:04:57;;;;;;;12.27;8.75;;;;;;;;;;6129800;23;20033;-76
2022/10/12 04:07:42;;;;;;;14.55;8.10;;;;;;;;;;6128987;23;20037;-80
2022/10/12 04:10:27;;;;;;;10.75;7.53;;;;;;;;;;6126806;23;20017;-80
2022/10/12 04:13:12;;;;;;;11.23;7.68;;;;;;;;;;6125829;23;20017;-80
2022/10/12 04:16:02;;;;;;;14.15;8.80;;;;;;;;;;6125923;23;20088;-81
2022/10/12 04:18:47;;;;;;;15.82;8.63;;;;;;;;;;6126193;23;20127;-82
2022/10/12 04:21:33;;;;;;;11.70;8.10;;;;;;;;;;6147270;23;20449;-78
2022/10/12 04:24:18;;;;;;;13.45;8.55;;;;;;;;;;6126337;23;20146;-82
2022/10/12 04:27:03;;;;;;;15.02;9.38;;;;;;;;;;6126245;23;20016;-80
2022/10/12 04:29:48;;;;;;;14.32;8.57;;;;;;;;;;6126289;23;20028;-80
2022/10/12 04:32:34;;;;;;;14.20;9.32;;;;;;;;;;6147417;23;20025;-80
2022/10/12 04:35:19;;;;;;;19.08;8.70;;;;;;;;;;6125976;23;20009;-79
2022/10/12 04:38:05;;;;;;;13.35;8.45;;;;;;;;;;6154671;23;20013;-79
2022/10/12 04:40:50;;;;;;;14.35;7.57;;;;;;;;;;6126101;23;20017;-77
2022/10/12 04:43:35;;;;;;;13.50;8.40;;;;;;;;;;6126479;23;20009;-74
2022/10/12 04:46:20;;;;;;;15.77;9.38;;;;;;;;;;6125619;23;20014;-75
2022/10/12 04:49:06;;;;;;;15.98;8.20;;;;;;;;;;6126468;23;20067;-74
2022/10/12 04:51:51;;;;;;;11.43;8.30;;;;;;;;;;6146135;23;20360;-75
2022/10/12 04:54:36;;;;;;;14.20;8.43;;;;;;;;;;6146413;23;20005;-75
2022/10/12 04:57:21;;;;;;;15.95;8.68;;;;;;;;;;6125800;23;20404;-80
2022/10/12 05:00:07;;;;;;;22.13;9.75;;;;;;;;;;6125559;23;20006;-74
2022/10/12 05:02:52;;;;;;;13.70;8.90;;;;;;;;;;6106127;23;20154;-80
2022/10/12 05:05:37;;;;;;;13.98;8.05;;;;;;;;;;6125897;23;20445;-78
2022/10/12 05:08:23;;;;;;;12.40;8.25;;;;;;;;;;6147654;23;20006;-79
2022/10/12 05:11:08;;;;;;;15.75;8.60;;;;;;;;;;6132354;23;20074;-77
2022/10/12 05:13:53;;;;;;;12.98;8.55;;;;;;;;;;6125820;23;20009;-78
2022/10/12 05:16:39;;;;;;;16.17;9.07;;;;;;;;;;6124097;23;20092;-69
2022/10/12 05:19:24;;;;;;;13.63;8.88;;;;;;;;;;6125017;23;20009;-69
2022/10/12 05:22:09;;;;;;;15.63;9.70;;;;;;;;;;6211827;23;20013;-71
2022/10/12 05:24:54;;;;;;;16.58;9.32;;;;;;;;;;6125368;23;20155;-71
2022/10/12 05:27:39;;;;;;;16.58;9.93;;;;;;;;;;6145744;23;20041;-73
2022/10/12 05:30:25;;;;;;;13.55;9.43;;;;;;;;;;6123582;23;20018;-69
2022/10/12 05:33:10;;;;;;;12.80;8.73;;;;;;;;;;6124017;23;20088;-70
2022/10/12 05:35:55;;;;;;;12.23;8.43;;;;;;;;;;6124567;23;20095;-68
2022/10/12 05:38:40;;;;;;;15.52;9.10;;;;;;;;;;6124565;23;20010;-73
2022/10/12 05:41:25;;;;;;;18.27;9.05;;;;;;;;;;6130006;23;20005;-73
2022/10/12 05:44:11;;;;;;;14.23;9.60;;;;;;;;;;6124943;23;20009;-74
2022/10/12 05:46:56;;;;;;;14.77;10.23;;;;;;;;;;6144227;23;20009;-74
2022/10/12 05:49:41;;;;;;;14.05;8.88;;;;;;;;;;6143388;23;20394;-72
2022/10/12 05:52:26;;;;;;;13.00;9.15;;;;;;;;;;6122683;23;20075;-75
2022/10/12 05:55:12;;;;;;;13.07;9.40;;;;;;;;;;6145105;23;20081;-82
2022/10/12 05:57:57;;;;;;;14.38;8.70;;;;;;;;;;6151724;23;20017;-69
2022/10/12 06:00:42;;;;;;;17.45;9.45;;;;;;;;;;6154151;23;20142;-67
2022/10/12 06:03:27;;;;;;;13.07;8.73;;;;;;;;;;6154921;23;20606;-68
2022/10/12 06:06:12;;;;;;;17.25;10.05;;;;;;;;;;6154817;23;20059;-67
2022/10/12 06:08:58;;;;;;;15.98;11.25;;;;;;;;;;6155431;23;20006;-67
2022/10/12 06:11:43;;;;;;;16.02;10.90;;;;;;;;;;6153927;23;20012;-69
2022/10/12 06:14:28;;;;;;;14.60;9.90;;;;;;;;;;6138474;23;20008;-70
2022/10/12 06:17:13;;;;;;;17.55;10.25;;;;;;;;;;6152848;23;20139;-63
2022/10/12 06:19:59;;;;;;;18.25;10.98;;;;;;;;;;6172190;23;20042;-62
2022/10/12 06:22:44;;;;;;;16.48;11.88;;;;;;;;;;6172980;23;20452;-63
2022/10/12 06:25:29;;;;;;;20.45;11.43;;;;;;;;;;6153823;23;20563;-62
2022/10/12 06:28:15;;;;;;;19.67;12.50;;;;;;;;;;6174208;23;20377;-61
2022/10/12 06:31:00;;;;;;;19.65;11.50;;;;;;;;;;6152440;23;20056;-63
2022/10/12 06:33:46;;;;;;;18.23;11.05;;;;;;;;;;6151916;23;20062;-69
2022/10/12 06:36:31;;;;;;;16.45;11.05;;;;;;;;;;6154192;23;20009;-69
2022/10/12 06:39:16;;;;;;;21.55;11.82;;;;;;;;;;6173694;22;20084;-69
2022/10/12 06:42:02;;;;;;;20.27;11.80;;;;;;;;;;6174167;23;20329;-69
2022/10/12 06:44:47;;;;;;;21.13;11.68;;;;;;;;;;6175900;23;20007;-69
2022/10/12 06:47:32;;;;;;;18.92;11.02;;;;;;;;;;6138958;23;20067;-73
2022/10/12 06:50:17;;;;;;;23.45;12.57;;;;;;;;;;6172331;23;20012;-69
2022/10/12 06:53:03;;;;;;;18.35;11.10;;;;;;;;;;6174891;23;20005;-69
2022/10/12 06:55:48;;;;;;;17.05;10.88;;;;;;;;;;6173359;22;20305;-69
2022/10/12 06:58:34;;;;;;;19.20;11.63;;;;;;;;;;6174123;23;20012;-71
2022/10/12 07:01:19;;;;;;;23.27;11.80;;;;;;;;;;6172782;23;20506;-69
2022/10/12 07:04:04;;;;;;;21.13;12.23;;;;;;;;;;6152783;23;20009;-70
2022/10/12 07:06:49;;;;;;;19.35;11.30;;;;;;;;;;6174553;22;20009;-74
2022/10/12 07:09:35;;;;;;;21.88;12.93;;;;;;;;;;6174366;23;20017;-74
2022/10/12 07:12:20;;;;;;;24.55;14.60;;;;;;;;;;6173485;23;20356;-75
2022/10/12 07:15:06;;;;;;;20.63;13.85;;;;;;;;;;6174319;23;20019;-76
2022/10/12 07:17:51;;;;;;;24.65;15.32;;;;;;;;;;6177205;23;19993;-74
2022/10/12 07:20:39;;;;;;;27.23;13.57;;;;;;;;;;6175716;23;20619;-75
2022/10/12 07:23:25;;;;;;;24.60;14.73;;;;;;;;;;6174503;22;20036;-76
2022/10/12 07:26:10;;;;;;;24.35;14.82;;;;;;;;;;6174125;22;20083;-77
2022/10/12 07:28:55;;;;;;;31.42;16.42;;;;;;;;;;6174838;23;20009;-69
2022/10/12 07:31:41;;;;;;;26.27;14.85;;;;;;;;;;6152755;23;20009;-68
2022/10/12 07:34:27;;;;;;;28.10;16.42;;;;;;;;;;6174302;23;20040;-69
2022/10/12 07:37:12;;;;;;;25.67;16.17;;;;;;;;;;6173695;22;20033;-70
2022/10/12 07:39:57;;;;;;;24.58;13.63;;;;;;;;;;6174005;23;20001;-71
2022/10/12 07:42:42;;;;;;;27.30;14.10;;;;;;;;;;6173935;23;20008;-71
2022/10/12 07:45:28;;;;;;;27.80;14.60;;;;;;;;;;6173866;23;20499;-74
2022/10/12 07:48:13;;;;;;;36.30;16.33;;;;;;;;;;6153786;23;20001;-75
2022/10/12 07:51:02;;;;;;;22.30;14.18;;;;;;;;;;6181157;22;20054;-76
2022/10/12 07:53:49;;;;;;;27.75;16.58;;;;;;;;;;6174667;23;20051;-76
2022/10/12 07:56:34;;;;;;;29.08;14.90;;;;;;;;;;6133218;23;20005;-76
2022/10/12 07:59:19;;;;;;;22.55;13.95;;;;;;;;;;6173870;22;20040;-75
2022/10/12 08:02:05;;;;;;;23.05;14.80;;;;;;;;;;6172950;23;20009;-70
2022/10/12 08:04:50;;;;;;;23.42;14.43;;;;;;;;;;6174166;23;20005;-74
2022/10/12 08:07:36;;;;;;;23.63;15.13;;;;;;;;;;6174781;23;20013;-77
2022/10/12 08:10:21;;;;;;;25.02;14.85;;;;;;;;;;6173968;23;20009;-74
2022/10/12 08:13:06;;;;;;;28.05;14.32;;;;;;;;;;6174654;22;20016;-74
2022/10/12 08:15:51;;;;;;;23.88;15.90;;;;;;;;;;6173914;23;20016;-75
2022/10/12 08:18:37;;;;;;;19.95;12.48;;;;;;;;;;6173345;22;20001;-76
2022/10/12 08:21:22;;;;;;;24.48;15.48;;;;;;;;;;6133139;23;20020;-70
2022/10/12 08:24:08;;;;;;;24.65;16.02;;;;;;;;;;6178272;23;20005;-72
2022/10/12 08:26:53;;;;;;;22.67;14.27;;;;;;;;;;6174350;23;20455;-73
2022/10/12 08:29:39;;;;;;;21.23;13.88;;;;;;;;;;6173978;22;20054;-71
2022/10/12 08:32:24;;;;;;;26.40;16.55;;;;;;;;;;6173686;23;20013;-71
2022/10/12 08:35:10;;;;;;;24.88;15.18;;;;;;;;;;6173086;22;20005;-72
2022/10/12 08:37:55;;;;;;;23.90;14.93;;;;;;;;;;6173975;23;20146;-73
2022/10/12 08:40:43;;;;;;;26.33;15.95;;;;;;;;;;6175725;22;20005;-76
2022/10/12 08:43:47;;;;;;;25.55;16.23;;;;;;;;;;6134241;23;20001;-67
2022/10/12 08:46:33;;;;;;;27.60;16.80;;;;;;;;;;6175146;23;20005;-68
2022/10/12 08:49:20;;;;;;;22.92;14.50;;;;;;;;;;6174294;22;20008;-67
2022/10/12 08:52:11;;;;;;;19.33;14.18;;;;;;;;;;6174802;23;20467;-67
2022/10/12 08:55:15;;;;;;;22.25;15.30;;;;;;;;;;6182997;23;20005;-69
2022/10/12 08:58:00;;;;;;;25.10;14.95;;;;;;;;;;6174609;22;20172;-70
2022/10/12 09:00:47;;;;;;;20.83;14.02;;;;;;;;;;6175847;22;20080;-68
2022/10/12 09:03:35;;;;;;;25.08;14.88;;;;;;;;;;6174883;23;20001;-69
2022/10/12 09:06:23;;;;;;;21.13;15.02;;;;;;;;;;6175705;23;20016;-69
2022/10/12 09:09:27;;;;;;;25.85;16.20;;;;;;;;;;6155296;23;20436;-66
2022/10/12 09:12:20;;;;;;;26.77;15.88;;;;;;;;;;6154707;23;20005;-68
2022/10/12 09:15:17;;;;;;;21.42;14.43;;;;;;;;;;6176036;23;20468;-74
2022/10/12 09:18:04;;;;;;;25.15;14.65;;;;;;;;;;6176696;22;20012;-72
2022/10/12 09:20:50;;;;;;;29.10;15.93;;;;;;;;;;6175610;23;20320;-71
2022/10/12 09:23:40;;;;;;;25.48;15.02;;;;;;;;;;6175779;22;20009;-72
2022/10/12 09:26:31;;;;;;;23.15;13.38;;;;;;;;;;6181668;23;20012;-70
2022/10/12 09:29:26;;;;;;;20.25;13.05;;;;;;;;;;6176881;23;20005;-73
2022/10/12 09:32:22;;;;;;;23.48;13.70;;;;;;;;;;6174924;22;20009;-72
2022/10/12 09:35:09;;;;;;;21.48;11.73;;;;;;;;;;6175187;23;20455;-70
2022/10/12 09:37:54;;;;;;;23.45;12.18;;;;;;;;;;6153670;23;20001;-67
2022/10/12 09:40:40;;;;;;;21.30;12.68;;;;;;;;;;6133481;23;20009;-68
2022/10/12 09:43:25;;;;;;;18.38;11.55;;;;;;;;;;6175572;23;20039;-67
2022/10/12 09:46:13;;;;;;;18.63;11.77;;;;;;;;;;6152950;23;20401;-68
2022/10/12 09:48:59;;;;;;;19.73;11.02;;;;;;;;;;6133425;23;20008;-68
2022/10/12 09:51:44;;;;;;;20.50;11.13;;;;;;;;;;6174925;23;20456;-75
2022/10/12 09:54:29;;;;;;;20.58;10.75;;;;;;;;;;6154017;23;20063;-73
2022/10/12 09:57:22;;;;;;;23.83;10.65;;;;;;;;;;6154934;23;20697;-75
2022/10/12 10:00:22;;;;;;;19.05;11.45;;;;;;;;;;6179566;23;20139;-78
2022/10/12 10:03:20;;;;;;;21.77;11.93;;;;;;;;;;6173607;23;20481;-76
2022/10/12 10:06:05;;;;;;;19.65;11.60;;;;;;;;;;6173445;23;20110;-75
2022/10/12 10:08:51;;;;;;;20.55;11.43;;;;;;;;;;6175086;23;20040;-74
2022/10/12 10:11:36;;;;;;;19.83;10.77;;;;;;;;;;6174199;22;20019;-74
2022/10/12 10:14:21;;;;;;;16.73;9.38;;;;;;;;;;6175151;23;20013;-72
2022/10/12 10:17:12;;;;;;;18.80;10.35;;;;;;;;;;6154072;23;20016;-73
2022/10/12 10:19:59;;;;;;;20.88;11.30;;;;;;;;;;6153978;23;20005;-73
2022/10/12 10:22:47;;;;;;;19.67;10.18;;;;;;;;;;6154436;23;20012;-73
2022/10/12 10:25:33;;;;;;;15.47;9.70;;;;;;;;;;6175208;23;20020;-74
2022/10/12 10:28:18;;;;;;;15.95;8.73;;;;;;;;;;6173338;23;20073;-73
2022/10/12 10:31:05;;;;;;;17.75;10.13;;;;;;;;;;6160331;23;20020;-73
2022/10/12 10:34:09;;;;;;;15.77;9.25;;;;;;;;;;6133070;23;20005;-67
2022/10/12 10:36:55;;;;;;;23.40;10.40;;;;;;;;;;6153984;23;20009;-69
2022/10/12 10:39:45;;;;;;;18.98;10.63;;;;;;;;;;6175170;23;20009;-70
2022/10/12 10:42:32;;;;;;;18.55;8.98;;;;;;;;;;6132600;23;20496;-68
2022/10/12 10:45:25;;;;;;;16.85;10.32;;;;;;;;;;6174022;23;20005;-68
2022/10/12 10:48:15;;;;;;;18.67;9.18;;;;;;;;;;6173810;22;20091;-69
2022/10/12 10:51:00;;;;;;;;;;;;;;;;;;6154528;23;20051;-74
2022/10/12 10:53:47;;;;;;;14.52;8.20;;;;;;;;;;6153750;22;19919;-75
2022/10/12 10:56:32;;;;;;;14.25;9.73;;;;;;;;;;6154547;23;20009;-74
2022/10/12 10:59:37;;;;;;;14.98;9.07;;;;;;;;;;6174823;23;20058;-74
2022/10/12 11:02:27;;;;;;;16.92;8.20;;;;;;;;;;6161173;23;20005;-73
2022/10/12 11:05:17;;;;;;;19.38;9.10;;;;;;;;;;6155142;23;20013;-74
2022/10/12 11:08:32;;;;;;;16.85;8.43;;;;;;;;;;6175181;23;20009;-74
2022/10/12 11:11:20;;;;;;;17.33;8.55;;;;;;;;;;6157447;23;20019;-69
2022/10/12 11:14:14;;;;;;;18.52;9.35;;;;;;;;;;6133840;23;20328;-68
2022/10/12 11:17:04;;;;;;;14.68;8.32;;;;;;;;;;6151580;23;20040;-70
2022/10/12 11:19:52;;;;;;;16.90;9.77;;;;;;;;;;6172152;23;20313;-70
2022/10/12 11:22:45;;;;;;;18.52;8.90;;;;;;;;;;6263489;22;20004;-72
2022/10/12 11:25:33;;;;;;;17.95;8.55;;;;;;;;;;6133030;23;20012;-78
2022/10/12 11:28:18;;;;;;;18.60;8.90;;;;;;;;;;6132832;23;20001;-67
2022/10/12 11:31:05;;;;;;;17.50;10.10;;;;;;;;;;6132365;23;20013;-68
2022/10/12 11:33:53;;;;;;;18.00;9.15;;;;;;;;;;6133856;23;20045;-69
2022/10/12 11:36:40;;;;;;;17.20;8.70;;;;;;;;;;6177016;23;20001;-69
2022/10/12 11:39:39;;;;;;;17.17;7.72;;;;;;;;;;6174682;23;20475;-67
2022/10/12 11:42:25;;;;;;;;;;;;;;;;;;6172471;23;20131;-72
2022/10/12 11:45:19;;;;;;;18.60;8.25;;;;;;;;;;6152697;22;19908;-68
2022/10/12 11:48:09;;;;;;;15.52;7.57;;;;;;;;;;6171697;23;20423;-66
2022/10/12 11:50:55;;;;;;;13.38;8.57;;;;;;;;;;6132348;23;20024;-68
2022/10/12 11:53:51;;;;;;;19.85;8.23;;;;;;;;;;6153712;23;20009;-67
2022/10/12 11:56:42;;;;;;;49.63;28.65;;;;;;;;;;6259887;22;20001;-59
2022/10/12 11:59:31;;;;;;;72.82;40.83;;;;;;;;;;6173624;23;20424;-61
2022/10/12 12:02:19;;;;;;;115.55;54.50;;;;;;;;;;6173293;22;20009;-59
2022/10/12 12:05:10;;;;;;;53.75;27.08;;;;;;;;;;6173969;22;20005;-64
2022/10/12 12:07:56;;;;;;;34.22;17.42;;;;;;;;;;6156759;23;20492;-65
2022/10/12 12:10:42;;;;;;;28.33;13.30;;;;;;;;;;6173627;22;20013;-63
2022/10/12 12:13:27;;;;;;;19.35;9.07;;;;;;;;;;6176012;23;20057;-71
2022/10/12 12:16:12;;;;;;;16.38;8.55;;;;;;;;;;6173913;23;20123;-71
2022/10/12 12:19:07;;;;;;;12.75;8.32;;;;;;;;;;6154784;23;20472;-70
2022/10/12 12:22:11;;;;;;;16.45;7.60;;;;;;;;;;6175977;23;20001;-68
2022/10/12 12:25:04;;;;;;;16.45;8.60;;;;;;;;;;6154260;23;20013;-75
2022/10/12 12:27:51;;;;;;;13.90;8.38;;;;;;;;;;6175458;23;20084;-74
2022/10/12 12:30:37;;;;;;;21.10;7.95;;;;;;;;;;6261235;22;20084;-74
2022/10/12 12:33:28;;;;;;;12.38;7.47;;;;;;;;;;6263301;22;20450;-77
2022/10/12 12:36:33;;;;;;;13.15;7.95;;;;;;;;;;6173505;23;20013;-73
2022/10/12 12:39:31;;;;;;;13.40;6.75;;;;;;;;;;6182722;23;20013;-72
2022/10/12 12:42:20;;;;;;;14.18;6.97;;;;;;;;;;6263874;22;19997;-69
2022/10/12 12:45:38;;;;;;;11.95;5.85;;;;;;;;;;6154320;23;20017;-68
2022/10/12 12:48:38;;;;;;;15.15;6.72;;;;;;;;;;6155383;23;20017;-67
2022/10/12 12:51:31;;;;;;;14.85;7.22;;;;;;;;;;6155200;23;20378;-67
2022/10/12 12:54:20;;;;;;;14.13;7.32;;;;;;;;;;6263655;22;20017;-70
2022/10/12 12:57:05;;;;;;;;;;;;;;;;;;6264410;22;20459;-68
2022/10/12 12:59:50;;;;;;;12.40;6.45;;;;;;;;;;6154323;22;19915;-80
2022/10/12 13:02:44;;;;;;;13.95;7.18;;;;;;;;;;6155576;23;20021;-80
2022/10/12 13:05:46;;;;;;;14.13;7.45;;;;;;;;;;6172950;23;20005;-78
2022/10/12 13:08:38;;;;;;;15.32;7.20;;;;;;;;;;6173056;23;20066;-79
2022/10/12 13:11:36;;;;;;;13.13;6.50;;;;;;;;;;6270643;22;20315;-79
2022/10/12 13:14:24;;;;;;;11.75;5.90;;;;;;;;;;6154108;23;20488;-67
2022/10/12 13:17:18;;;;;;;14.00;6.40;;;;;;;;;;6133203;23;20076;-79
2022/10/12 13:20:25;;;;;;;10.88;5.47;;;;;;;;;;6172003;23;20107;-75
2022/10/12 13:23:14;;;;;;;9.82;5.55;;;;;;;;;;6173118;23;20024;-73
2022/10/12 13:26:05;;;;;;;10.67;5.80;;;;;;;;;;6133485;23;20095;-73
2022/10/12 13:28:51;;;;;;;11.18;5.70;;;;;;;;;;6153516;23;20015;-74
2022/10/12 13:31:39;;;;;;;11.02;6.00;;;;;;;;;;6262145;22;20464;-73
2022/10/12 13:34:28;;;;;;;10.77;5.50;;;;;;;;;;6173445;23;20016;-69
2022/10/12 13:37:14;;;;;;;9.90;5.97;;;;;;;;;;6152164;23;20031;-68
2022/10/12 13:39:59;;;;;;;14.98;5.50;;;;;;;;;;6174383;23;20005;-67
2022/10/12 13:42:44;;;;;;;9.30;5.13;;;;;;;;;;6157386;23;20009;-67
2022/10/12 13:45:29;;;;;;;11.80;5.45;;;;;;;;;;6175821;23;20013;-68
2022/10/12 13:48:17;;;;;;;10.45;5.93;;;;;;;;;;6170446;23;20016;-70
2022/10/12 13:51:03;;;;;;;11.38;5.80;;;;;;;;;;6133309;23;20025;-76
2022/10/12 13:53:49;;;;;;;13.80;6.20;;;;;;;;;;6132980;23;20001;-78
2022/10/12 13:56:34;;;;;;;9.82;5.60;;;;;;;;;;6133997;23;20001;-70
2022/10/12 13:59:21;;;;;;;12.13;5.32;;;;;;;;;;6133157;23;20009;-71
2022/10/12 14:02:17;;;;;;;8.30;4.85;;;;;;;;;;6132774;23;20009;-70
2022/10/12 14:05:04;;;;;;;12.63;5.22;;;;;;;;;;6174243;23;20013;-70
2022/10/12 14:07:51;;;;;;;12.75;5.20;;;;;;;;;;6152749;23;20016;-70
2022/10/12 14:10:37;;;;;;;12.63;5.55;;;;;;;;;;6262695;22;20055;-76
2022/10/12 14:13:30;;;;;;;11.00;5.07;;;;;;;;;;6173704;23;20005;-73
2022/10/12 14:16:15;;;;;;;9.63;5.13;;;;;;;;;;6178902;23;20036;-74
2022/10/12 14:19:20;;;;;;;10.70;5.38;;;;;;;;;;6174192;23;20016;-75
2022/10/12 14:22:06;;;;;;;8.15;5.05;;;;;;;;;;6131942;23;20009;-74
2022/10/12 14:24:54;;;;;;;8.90;4.88;;;;;;;;;;6153913;23;20049;-74
2022/10/12 14:27:40;;;;;;;13.45;4.00;;;;;;;;;;6153350;23;20001;-73
2022/10/12 14:30:30;;;;;;;13.50;5.43;;;;;;;;;;6153368;23;20082;-72
2022/10/12 14:33:15;;;;;;;9.80;4.53;;;;;;;;;;6152369;23;20092;-75
2022/10/12 14:36:30;;;;;;;12.48;5.32;;;;;;;;;;6152048;23;20009;-74
2022/10/12 14:39:17;;;;;;;8.73;5.13;;;;;;;;;;6157579;23;20045;-74
2022/10/12 14:42:03;;;;;;;14.75;6.22;;;;;;;;;;6173621;23;20039;-74
2022/10/12 14:44:49;;;;;;;9.73;5.38;;;;;;;;;;6173478;23;20044;-74
2022/10/12 14:47:37;;;;;;;12.10;5.90;;;;;;;;;;6182236;23;20001;-71
2022/10/12 14:50:23;;;;;;;9.50;4.90;;;;;;;;;;6173337;23;20001;-70
2022/10/12 14:53:10;;;;;;;7.78;5.18;;;;;;;;;;6173154;23;20013;-71
2022/10/12 14:55:55;;;;;;;11.65;4.53;;;;;;;;;;6173822;23;20145;-70
2022/10/12 14:58:40;;;;;;;12.30;5.05;;;;;;;;;;6173970;23;20001;-70
2022/10/12 15:01:26;;;;;;;10.30;4.80;;;;;;;;;;6132166;23;20005;-70
2022/10/12 15:04:12;;;;;;;12.93;5.82;;;;;;;;;;6172636;23;20001;-71
2022/10/12 15:06:57;;;;;;;13.30;5.38;;;;;;;;;;6174143;23;20009;-67
2022/10/12 15:09:43;;;;;;;13.82;6.22;;;;;;;;;;6172631;23;20074;-72
2022/10/12 15:12:29;;;;;;;15.35;5.72;;;;;;;;;;6153868;23;20009;-72
2022/10/12 15:15:14;;;;;;;9.93;4.45;;;;;;;;;;6173779;23;20009;-74
2022/10/12 15:18:00;;;;;;;11.43;5.05;;;;;;;;;;6134566;23;20055;-75
2022/10/12 15:20:47;;;;;;;11.35;5.32;;;;;;;;;;6265983;22;20040;-73
2022/10/12 15:23:32;;;;;;;11.25;4.97;;;;;;;;;;6152562;23;20082;-75
2022/10/12 15:26:18;;;;;;;13.45;6.18;;;;;;;;;;6172835;23;20444;-72
2022/10/12 15:29:03;;;;;;;12.15;4.10;;;;;;;;;;6151906;23;20001;-72
2022/10/12 15:31:48;;;;;;;11.60;4.97;;;;;;;;;;6172570;23;20031;-73
2022/10/12 15:34:33;;;;;;;11.23;5.22;;;;;;;;;;6171798;23;20015;-73
2022/10/12 15:37:18;;;;;;;9.82;4.88;;;;;;;;;;6153990;23;20092;-73
2022/10/12 15:40:04;;;;;;;14.77;5.28;;;;;;;;;;6174645;23;20008;-72
2022/10/12 15:42:49;;;;;;;12.15;4.78;;;;;;;;;;6154320;23;20015;-76
2022/10/12 15:45:35;;;;;;;17.38;6.43;;;;;;;;;;6152181;23;20012;-75
2022/10/12 15:48:21;;;;;;;12.65;4.82;;;;;;;;;;6263237;22;20066;-77
2022/10/12 15:51:12;;;;;;;9.70;5.13;;;;;;;;;;6180427;23;20046;-78
2022/10/12 15:53:57;;;;;;;10.32;4.32;;;;;;;;;;6133943;23;20005;-77
2022/10/12 15:56:43;;;;;;;12.68;5.80;;;;;;;;;;6155214;23;20013;-75
2022/10/12 15:59:28;;;;;;;16.05;6.18;;;;;;;;;;6175526;23;20509;-76
2022/10/12 16:02:13;;;;;;;11.27;5.05;;;;;;;;;;6175006;23;20005;-66
2022/10/12 16:04:58;;;;;;;12.55;4.40;;;;;;;;;;6154214;23;20013;-73
2022/10/12 16:07:43;;;;;;;12.75;5.20;;;;;;;;;;6155056;23;20035;-71
2022/10/12 16:10:34;;;;;;;14.15;5.68;;;;;;;;;;6173526;23;20012;-71
2022/10/12 16:13:19;;;;;;;13.00;5.70;;;;;;;;;;6154652;23;20001;-71
2022/10/12 16:16:04;;;;;;;10.48;5.68;;;;;;;;;;6174909;23;20009;-71
2022/10/12 16:18:52;;;;;;;10.32;4.95;;;;;;;;;;6174280;23;20005;-77
2022/10/12 16:21:37;;;;;;;12.85;5.88;;;;;;;;;;6175277;23;20070;-71
2022/10/12 16:24:23;;;;;;;12.32;5.20;;;;;;;;;;6180714;23;20004;-71
2022/10/12 16:27:08;;;;;;;11.18;5.05;;;;;;;;;;6175369;23;20016;-71